• Join FlightAware (Why Join?)
  • Login
  • US Flag 
Rudolph Flight #1: Arrived! 
12:33AM EST


 

Airport Tracker/Info


-or-


 

Live Flight TrackerFlight Track Log ✈ N761SP ✈ 18-Feb-2012 ✈ KSUW - KFCM

Flight Track Log - Related Links

Times and Time Zones

All times are in EST time to prevent confusion due to time zone crossing. See the N761SP flight status page for this flight to view local times or setup timezone preferences in your user account.

Time Position Orientation Groundspeed Altitude Reporting Facility
EST Latitude Longitude Course Direction KTS MPH feet Rate Location/Type
03:25PM 46.6512 -92.1237 214° Southwest  Level FlightAware Approximate
03:33PM 46.3431 -92.3554 259° West  Level FlightAware Approximate
03:36PM 46.3328 -92.4350 207° Southwest 152 175 5,900  Level Minneapolis Center
03:37PM 46.2956 -92.4625 206° Southwest 152 175 5,900  Level Minneapolis Center
03:38PM 46.2561 -92.4903 205° Southwest 152 175 5,900  Level Minneapolis Center
03:39PM 46.2189 -92.5150 210° Southwest 152 175 5,900  Level Minneapolis Center
03:40PM 46.1817 -92.5456 206° Southwest 152 175 5,900  Level Minneapolis Center
03:41PM 46.1422 -92.5733 204° Southwest 157 181 5,900  Level Minneapolis Center
03:42PM 46.1050 -92.5978 207° Southwest 157 181 5,900  Level Minneapolis Center
03:43PM 46.0678 -92.6253 206° Southwest 157 181 5,900  Level Minneapolis Center
03:44PM 46.0283 -92.6528 207° Southwest 157 181 5,900  Level Minneapolis Center
03:45PM 45.9950 -92.6772 203° Southwest 157 181 5,900  Level Minneapolis Center
03:46PM 45.9558 -92.7014 210° Southwest 157 181 5,900  Level Minneapolis Center
03:47PM 45.9225 -92.7289 202° Southwest 152 175 6,000  Climbing Minneapolis Center
03:48PM 45.8811 -92.7533 204° Southwest 152 175 6,000  Level Minneapolis Center
03:49PM 45.8436 -92.7775 207° Southwest 152 175 6,000  Level Minneapolis Center
03:50PM 45.8064 -92.8047 207° Southwest 152 175 6,000  Level Minneapolis Center
03:51PM 45.7689 -92.8319 203° Southwest 157 181 6,000 -120 Level Minneapolis Center
03:51PM 45.7581 -92.8386 202° Southwest 149 171 5,900 -180 Descending FAA TRACON SMA TRACON (SMA)
03:51PM 45.7433 -92.8472 215° Southwest 148 170 5,900  Level FAA TRACON SMA TRACON (SMA)
03:51PM 45.7322 -92.8583 198° South 153 176 5,900 -180 Level FAA TRACON SMA TRACON (SMA)
03:52PM 45.7200 -92.8639 203° Southwest 152 175 5,800 -480 Descending FAA TRACON SMA TRACON (SMA)
03:52PM 45.7075 -92.8714 209° Southwest 157 181 5,600 -600 Descending FAA TRACON SMA TRACON (SMA)
03:52PM 45.6919 -92.8839 207° Southwest 166 191 5,400 -480 Descending FAA TRACON SMA TRACON (SMA)
03:53PM 45.6789 -92.8933 197° South 168 193 5,300 -480 Descending FAA TRACON SMA TRACON (SMA)
03:53PM 45.6625 -92.9006 212° Southwest 163 188 5,100 -480 Descending FAA TRACON SMA TRACON (SMA)
03:53PM 45.6503 -92.9114 200° South 166 191 5,000 -360 Descending FAA TRACON SMA TRACON (SMA)
03:54PM 45.6369 -92.9183 209° Southwest 166 191 4,900 -180 Descending FAA TRACON SMA TRACON (SMA)
03:54PM 45.6217 -92.9303 201° Southwest 164 189 4,900  Level FAA TRACON SMA TRACON (SMA)
03:54PM 45.6092 -92.9372 210° Southwest 158 182 4,900  Level FAA TRACON SMA TRACON (SMA)
03:55PM 45.5972 -92.9469 207° Southwest 157 181 4,900  Level FAA TRACON SMA TRACON (SMA)
03:55PM 45.5828 -92.9575 200° South 156 180 4,900  Level FAA TRACON SMA TRACON (SMA)
03:55PM 45.5706 -92.9639 205° Southwest 153 176 4,900  Level FAA TRACON SMA TRACON (SMA)
03:56PM 45.5586 -92.9719 206° Southwest 154 177 4,900  Level FAA TRACON SMA TRACON (SMA)
03:56PM 45.5433 -92.9825 204° Southwest 155 178 4,900  Level FAA TRACON SMA TRACON (SMA)
03:56PM 45.5317 -92.9900 203° Southwest 154 177 4,900  Level FAA TRACON SMA TRACON (SMA)
03:57PM 45.5197 -92.9972 204° Southwest 151 174 4,900  Level FAA TRACON SMA TRACON (SMA)
03:57PM 45.5050 -93.0067 208° Southwest 151 174 4,900  Level FAA TRACON SMA TRACON (SMA)
03:58PM 45.4939 -93.0153 210° Southwest 151 174 4,900  Level FAA TRACON SMA TRACON (SMA)
03:58PM 45.4819 -93.0250 214° Southwest 155 178 4,900  Level FAA TRACON SMA TRACON (SMA)
03:58PM 45.4692 -93.0375 226° Southwest 151 174 4,900  Level FAA TRACON SMA TRACON (SMA)
03:58PM 45.4603 -93.0508 217° Southwest 151 174 4,900  Level FAA TRACON SMA TRACON (SMA)
03:59PM 45.4506 -93.0614 227° Southwest 147 169 4,900 -180 Level FAA TRACON SMA TRACON (SMA)
03:59PM 45.4392 -93.0786 222° Southwest 153 176 4,800 -180 Descending FAA TRACON SMA TRACON (SMA)
03:59PM 45.4297 -93.0908 222° Southwest 152 175 4,800 120 Level FAA TRACON SMA TRACON (SMA)
04:00PM 45.4206 -93.1028 226° Southwest 151 174 4,900 120 Climbing FAA TRACON SMA TRACON (SMA)
04:00PM 45.4092 -93.1194 219° Southwest 152 175 4,900  Level FAA TRACON SMA TRACON (SMA)
04:00PM 45.3997 -93.1303 227° Southwest 148 170 4,900  Level FAA TRACON SMA TRACON (SMA)
04:01PM 45.3906 -93.1444 224° Southwest 152 175 4,900  Level FAA TRACON SMA TRACON (SMA)
04:01PM 45.3789 -93.1603 221° Southwest 152 175 4,900  Level FAA TRACON SMA TRACON (SMA)
04:01PM 45.3694 -93.1719 228° Southwest 149 171 4,900 -180 Level FAA TRACON SMA TRACON (SMA)
04:02PM 45.3606 -93.1858 225° Southwest 152 175 4,800  Descending FAA TRACON SMA TRACON (SMA)
04:02PM 45.3489 -93.2025 223° Southwest 153 176 4,900 120 Climbing FAA TRACON SMA TRACON (SMA)
04:02PM 45.3397 -93.2147 225° Southwest 150 173 4,900  Level FAA TRACON SMA TRACON (SMA)
04:03PM 45.3306 -93.2278 225° Southwest 151 174 4,900  Level FAA TRACON SMA TRACON (SMA)
04:03PM 45.3194 -93.2433 224° Southwest 151 174 4,900  Level FAA TRACON SMA TRACON (SMA)
04:03PM 45.3103 -93.2561 224° Southwest 149 171 4,900  Level FAA TRACON SMA TRACON (SMA)
04:04PM 45.3011 -93.2689 225° Southwest 149 171 4,900  Level FAA TRACON SMA TRACON (SMA)
04:04PM 45.2897 -93.2853 225° Southwest 151 174 4,900  Level FAA TRACON SMA TRACON (SMA)
04:04PM 45.2808 -93.2978 224° Southwest 149 171 4,900  Level FAA TRACON SMA TRACON (SMA)
04:05PM 45.2717 -93.3103 224° Southwest 151 174 4,900 -180 Level FAA TRACON SMA TRACON (SMA)
04:05PM 45.2600 -93.3261 226° Southwest 152 175 4,800 -300 Descending FAA TRACON SMA TRACON (SMA)
04:05PM 45.2506 -93.3400 226° Southwest 158 182 4,700 -780 Descending FAA TRACON SMA TRACON (SMA)
04:06PM 45.2381 -93.3583 226° Southwest 164 189 4,300 -780 Descending FAA TRACON SMA TRACON (SMA)
04:06PM 45.2283 -93.3728 226° Southwest 165 190 4,200 -360 Descending FAA TRACON SMA TRACON (SMA)
04:06PM 45.2189 -93.3867 229° Southwest 163 188 4,100 -300 Descending FAA TRACON SMA TRACON (SMA)
04:07PM 45.2100 -93.4014 228° Southwest 160 184 4,000 -300 Descending FAA TRACON SMA TRACON (SMA)
04:07PM 45.1994 -93.4178 225° Southwest 152 175 3,900 -180 Descending FAA TRACON SMA TRACON (SMA)
04:08PM 45.1903 -93.4308 228° Southwest 149 171 3,900  Level FAA TRACON SMA TRACON (SMA)
04:08PM 45.1822 -93.4433 226° Southwest 145 167 3,900 120 Level FAA TRACON SMA TRACON (SMA)
04:08PM 45.1717 -93.4589 227° Southwest 141 162 4,000  Climbing FAA TRACON SMA TRACON (SMA)
04:09PM 45.1639 -93.4706 227° Southwest 136 157 3,900  Descending FAA TRACON SMA TRACON (SMA)
04:09PM 45.1542 -93.4856 228° Southwest 137 158 4,000  Climbing FAA TRACON SMA TRACON (SMA)
04:09PM 45.1458 -93.4986 228° Southwest 139 160 3,900 -180 Descending FAA TRACON SMA TRACON (SMA)
04:10PM 45.1383 -93.5103 227° Southwest 138 159 3,900 120 Level FAA TRACON SMA TRACON (SMA)
04:10PM 45.1283 -93.5256 230° Southwest 137 158 4,000 120 Climbing FAA TRACON SMA TRACON (SMA)
04:10PM 45.1211 -93.5378 226° Southwest 134 154 4,000  Level FAA TRACON SMA TRACON (SMA)
04:11PM 45.1131 -93.5494 227° Southwest 135 155 4,000  Level FAA TRACON SMA TRACON (SMA)
04:11PM 45.1028 -93.5650 228° Southwest 138 159 4,000  Level FAA TRACON SMA TRACON (SMA)
04:11PM 45.0956 -93.5764 225° Southwest 135 155 4,000  Level FAA TRACON SMA TRACON (SMA)
04:12PM 45.0867 -93.5889 215° Southwest 138 159 4,000  Level FAA TRACON SMA TRACON (SMA)
04:12PM 45.0747 -93.6008 214° Southwest 138 159 4,000 -180 Level FAA TRACON SMA TRACON (SMA)
04:12PM 45.0653 -93.6097 214° Southwest 137 158 3,900  Descending FAA TRACON SMA TRACON (SMA)
04:12PM 45.0550 -93.6194 215° Southwest 140 161 4,000  Climbing FAA TRACON SMA TRACON (SMA)
04:13PM 45.0433 -93.6311 214° Southwest 138 159 3,900 -480 Descending FAA TRACON SMA TRACON (SMA)
04:13PM 45.0331 -93.6408 217° Southwest 141 162 3,700 -660 Descending FAA TRACON SMA TRACON (SMA)
04:13PM 45.0225 -93.6519 197° South 150 173 3,500 -480 Descending FAA TRACON SMA TRACON (SMA)
04:14PM 45.0069 -93.6586 187° South 155 178 3,400 -600 Descending FAA TRACON SMA TRACON (SMA)
04:14PM 44.9936 -93.6608 189° South 154 177 3,100 -660 Descending FAA TRACON SMA TRACON (SMA)
04:14PM 44.9814 -93.6636 191° South 151 174 3,000 -180 Descending FAA TRACON SMA TRACON (SMA)
04:15PM 44.9661 -93.6678 188° South 148 170 3,000 -180 Level FAA TRACON SMA TRACON (SMA)
04:15PM 44.9539 -93.6703 192° South 142 163 2,900 -180 Descending FAA TRACON SMA TRACON (SMA)
04:15PM 44.9439 -93.6733 191° South 130 150 2,900  Level FAA TRACON SMA TRACON (SMA)
04:16PM 44.9306 -93.6769 188° South 126 145 2,900 120 Level FAA TRACON SMA TRACON (SMA)
04:16PM 44.9206 -93.6789 190° South 120 138 3,000  Climbing FAA TRACON SMA TRACON (SMA)
04:17PM 44.9100 -93.6814 189° South 122 140 2,900 -180 Descending FAA TRACON SMA TRACON (SMA)
04:17PM 44.8969 -93.6844 191° South 124 143 2,900 -180 Level FAA TRACON SMA TRACON (SMA)
04:17PM 44.8861 -93.6875 190° South 128 147 2,800 -360 Descending FAA TRACON SMA TRACON (SMA)
04:18PM 44.8744 -93.6903 155° Southeast 132 152 2,700 -480 Descending FAA TRACON SMA TRACON (SMA)
04:18PM 44.8617 -93.6819 116° Southeast 141 162 2,500 -300 Descending FAA TRACON SMA TRACON (SMA)
04:18PM 44.8569 -93.6681 105° East 139 160 2,500  Level FAA TRACON SMA TRACON (SMA)
04:19PM 44.8533 -93.6492 105° East 130 150 2,500  Level FAA TRACON SMA TRACON (SMA)
04:19PM 44.8506 -93.6342 95° East 129 148 2,500  Level FAA TRACON SMA TRACON (SMA)
04:19PM 44.8497 -93.6203 103° East 121 139 2,500  Level FAA TRACON SMA TRACON (SMA)
04:19PM 44.8475 -93.6069 99° East 115 132 2,500  Level FAA TRACON SMA TRACON (SMA)
04:20PM 44.8456 -93.5906 99° East 110 127 2,500  Level FAA TRACON SMA TRACON (SMA)